sensor_id;sensor_type;location;lat;lon;timestamp;temperature;humidity
17296;DHT22;8766;51.480;6.872;2023-06-22T00:00:48;25.10;45.40
17296;DHT22;8766;51.480;6.872;2023-06-22T00:03:15;25.10;45.40
17296;DHT22;8766;51.480;6.872;2023-06-22T00:05:41;25.10;45.40
17296;DHT22;8766;51.480;6.872;2023-06-22T00:08:08;25.10;45.40
17296;DHT22;8766;51.480;6.872;2023-06-22T00:10:35;25.10;45.40
17296;DHT22;8766;51.480;6.872;2023-06-22T00:13:03;25.10;45.50
17296;DHT22;8766;51.480;6.872;2023-06-22T00:15:30;25.00;45.50
17296;DHT22;8766;51.480;6.872;2023-06-22T00:17:57;25.00;45.50
17296;DHT22;8766;51.480;6.872;2023-06-22T00:20:24;25.00;46.10
17296;DHT22;8766;51.480;6.872;2023-06-22T00:22:53;25.00;45.60
17296;DHT22;8766;51.480;6.872;2023-06-22T00:25:20;25.00;45.60
17296;DHT22;8766;51.480;6.872;2023-06-22T00:27:47;24.90;45.60
17296;DHT22;8766;51.480;6.872;2023-06-22T00:30:16;24.90;45.70
17296;DHT22;8766;51.480;6.872;2023-06-22T00:32:43;24.90;45.70
17296;DHT22;8766;51.480;6.872;2023-06-22T00:35:11;24.80;45.70
17296;DHT22;8766;51.480;6.872;2023-06-22T00:37:38;24.80;45.70
17296;DHT22;8766;51.480;6.872;2023-06-22T00:40:08;24.90;45.80
17296;DHT22;8766;51.480;6.872;2023-06-22T00:42:37;24.90;45.80
17296;DHT22;8766;51.480;6.872;2023-06-22T00:45:05;24.80;45.80
17296;DHT22;8766;51.480;6.872;2023-06-22T00:47:34;24.80;45.80
17296;DHT22;8766;51.480;6.872;2023-06-22T00:50:01;24.80;45.80
17296;DHT22;8766;51.480;6.872;2023-06-22T00:52:29;24.70;45.70
17296;DHT22;8766;51.480;6.872;2023-06-22T00:54:59;24.80;45.80
17296;DHT22;8766;51.480;6.872;2023-06-22T00:57:28;24.80;45.80
17296;DHT22;8766;51.480;6.872;2023-06-22T00:59:55;24.70;45.80
17296;DHT22;8766;51.480;6.872;2023-06-22T01:02:22;24.70;45.80
17296;DHT22;8766;51.480;6.872;2023-06-22T01:04:50;24.70;45.80
17296;DHT22;8766;51.480;6.872;2023-06-22T01:07:22;24.70;45.80
17296;DHT22;8766;51.480;6.872;2023-06-22T01:09:57;24.80;46.00
17296;DHT22;8766;51.480;6.872;2023-06-22T01:12:26;24.70;46.00
17296;DHT22;8766;51.480;6.872;2023-06-22T01:15:02;24.60;46.00
17296;DHT22;8766;51.480;6.872;2023-06-22T01:17:31;24.60;46.00
17296;DHT22;8766;51.480;6.872;2023-06-22T01:20:00;24.60;46.00
17296;DHT22;8766;51.480;6.872;2023-06-22T01:22:33;24.60;46.10
17296;DHT22;8766;51.480;6.872;2023-06-22T01:25:10;24.60;46.60
17296;DHT22;8766;51.480;6.872;2023-06-22T01:27:44;24.60;46.00
17296;DHT22;8766;51.480;6.872;2023-06-22T01:30:16;24.50;46.10
17296;DHT22;8766;51.480;6.872;2023-06-22T01:32:44;24.60;46.20
17296;DHT22;8766;51.480;6.872;2023-06-22T01:35:12;24.50;46.20
17296;DHT22;8766;51.480;6.872;2023-06-22T01:37:39;24.50;46.30
17296;DHT22;8766;51.480;6.872;2023-06-22T01:40:08;24.40;46.30
17296;DHT22;8766;51.480;6.872;2023-06-22T01:42:35;24.40;46.30
17296;DHT22;8766;51.480;6.872;2023-06-22T01:45:03;24.40;46.40
17296;DHT22;8766;51.480;6.872;2023-06-22T01:47:32;24.30;46.40
17296;DHT22;8766;51.480;6.872;2023-06-22T01:50:00;24.30;46.50
17296;DHT22;8766;51.480;6.872;2023-06-22T01:52:27;24.30;46.50
17296;DHT22;8766;51.480;6.872;2023-06-22T01:54:54;24.30;46.50
17296;DHT22;8766;51.480;6.872;2023-06-22T01:57:23;24.30;46.50
17296;DHT22;8766;51.480;6.872;2023-06-22T01:59:53;24.30;46.50
17296;DHT22;8766;51.480;6.872;2023-06-22T02:02:24;24.20;46.50
17296;DHT22;8766;51.480;6.872;2023-06-22T02:04:58;24.30;46.60
17296;DHT22;8766;51.480;6.872;2023-06-22T02:07:29;24.20;46.60
17296;DHT22;8766;51.480;6.872;2023-06-22T02:09:59;24.20;46.60
17296;DHT22;8766;51.480;6.872;2023-06-22T02:12:26;24.20;46.70
17296;DHT22;8766;51.480;6.872;2023-06-22T02:14:54;24.20;46.70
17296;DHT22;8766;51.480;6.872;2023-06-22T02:17:22;24.10;46.70
17296;DHT22;8766;51.480;6.872;2023-06-22T02:19:49;24.20;46.80
17296;DHT22;8766;51.480;6.872;2023-06-22T02:22:18;24.10;46.80
17296;DHT22;8766;51.480;6.872;2023-06-22T02:24:44;24.10;46.80
17296;DHT22;8766;51.480;6.872;2023-06-22T02:27:11;24.10;46.80
17296;DHT22;8766;51.480;6.872;2023-06-22T02:29:38;24.00;46.80
17296;DHT22;8766;51.480;6.872;2023-06-22T02:32:05;24.00;46.90
17296;DHT22;8766;51.480;6.872;2023-06-22T02:34:32;24.00;46.90
17296;DHT22;8766;51.480;6.872;2023-06-22T02:36:59;24.00;46.90
17296;DHT22;8766;51.480;6.872;2023-06-22T02:39:29;24.00;47.00
17296;DHT22;8766;51.480;6.872;2023-06-22T02:41:56;23.90;46.90
17296;DHT22;8766;51.480;6.872;2023-06-22T02:44:23;24.00;47.00
17296;DHT22;8766;51.480;6.872;2023-06-22T02:46:50;23.90;47.00
17296;DHT22;8766;51.480;6.872;2023-06-22T02:49:16;23.90;47.00
17296;DHT22;8766;51.480;6.872;2023-06-22T02:51:45;23.90;47.00
17296;DHT22;8766;51.480;6.872;2023-06-22T02:54:13;23.90;47.10
17296;DHT22;8766;51.480;6.872;2023-06-22T02:56:41;23.90;47.10
17296;DHT22;8766;51.480;6.872;2023-06-22T02:59:09;23.80;47.10
17296;DHT22;8766;51.480;6.872;2023-06-22T03:01:36;23.80;47.10
17296;DHT22;8766;51.480;6.872;2023-06-22T03:04:05;23.90;47.20
17296;DHT22;8766;51.480;6.872;2023-06-22T03:06:32;23.80;47.20
17296;DHT22;8766;51.480;6.872;2023-06-22T03:09:00;23.80;47.20
17296;DHT22;8766;51.480;6.872;2023-06-22T03:11:27;23.80;47.20
17296;DHT22;8766;51.480;6.872;2023-06-22T03:13:55;23.70;47.30
17296;DHT22;8766;51.480;6.872;2023-06-22T03:16:22;23.70;47.30
17296;DHT22;8766;51.480;6.872;2023-06-22T03:18:48;23.70;47.30
17296;DHT22;8766;51.480;6.872;2023-06-22T03:21:15;23.80;47.40
17296;DHT22;8766;51.480;6.872;2023-06-22T03:23:42;23.70;47.40
17296;DHT22;8766;51.480;6.872;2023-06-22T03:26:09;23.70;47.40
17296;DHT22;8766;51.480;6.872;2023-06-22T03:28:36;23.70;47.40
17296;DHT22;8766;51.480;6.872;2023-06-22T03:31:05;23.70;47.40
17296;DHT22;8766;51.480;6.872;2023-06-22T03:33:32;23.70;47.40
17296;DHT22;8766;51.480;6.872;2023-06-22T03:35:59;23.60;47.50
17296;DHT22;8766;51.480;6.872;2023-06-22T03:38:26;23.60;47.50
17296;DHT22;8766;51.480;6.872;2023-06-22T03:40:53;23.60;47.50
17296;DHT22;8766;51.480;6.872;2023-06-22T03:43:20;23.60;48.10
17296;DHT22;8766;51.480;6.872;2023-06-22T03:45:46;23.60;47.50
17296;DHT22;8766;51.480;6.872;2023-06-22T03:48:14;23.60;47.50
17296;DHT22;8766;51.480;6.872;2023-06-22T03:50:41;23.60;47.50
17296;DHT22;8766;51.480;6.872;2023-06-22T03:53:09;23.70;47.50
17296;DHT22;8766;51.480;6.872;2023-06-22T03:55:36;23.70;47.50
17296;DHT22;8766;51.480;6.872;2023-06-22T03:58:03;23.60;47.50
17296;DHT22;8766;51.480;6.872;2023-06-22T04:00:31;23.60;47.50
17296;DHT22;8766;51.480;6.872;2023-06-22T04:02:58;23.70;47.50
17296;DHT22;8766;51.480;6.872;2023-06-22T04:05:26;23.70;47.50
17296;DHT22;8766;51.480;6.872;2023-06-22T04:07:52;23.80;47.40
17296;DHT22;8766;51.480;6.872;2023-06-22T04:10:19;23.70;47.20
17296;DHT22;8766;51.480;6.872;2023-06-22T04:12:47;23.80;47.20
17296;DHT22;8766;51.480;6.872;2023-06-22T04:15:14;23.80;47.20
17296;DHT22;8766;51.480;6.872;2023-06-22T04:17:41;23.80;47.20
17296;DHT22;8766;51.480;6.872;2023-06-22T04:20:08;23.80;47.20
17296;DHT22;8766;51.480;6.872;2023-06-22T04:22:36;23.80;47.30
17296;DHT22;8766;51.480;6.872;2023-06-22T04:25:03;23.70;47.30
17296;DHT22;8766;51.480;6.872;2023-06-22T04:27:31;23.80;47.30
17296;DHT22;8766;51.480;6.872;2023-06-22T04:29:57;23.90;47.20
17296;DHT22;8766;51.480;6.872;2023-06-22T04:32:25;24.00;47.10
17296;DHT22;8766;51.480;6.872;2023-06-22T04:34:52;24.00;46.90
17296;DHT22;8766;51.480;6.872;2023-06-22T04:37:19;24.10;46.70
17296;DHT22;8766;51.480;6.872;2023-06-22T04:39:50;24.20;46.60
17296;DHT22;8766;51.480;6.872;2023-06-22T04:42:16;24.30;46.60
17296;DHT22;8766;51.480;6.872;2023-06-22T04:44:43;24.20;46.60
17296;DHT22;8766;51.480;6.872;2023-06-22T04:47:10;24.10;46.90
17296;DHT22;8766;51.480;6.872;2023-06-22T04:49:37;24.00;47.10
17296;DHT22;8766;51.480;6.872;2023-06-22T04:52:07;23.90;47.20
17296;DHT22;8766;51.480;6.872;2023-06-22T04:54:34;23.90;47.30
17296;DHT22;8766;51.480;6.872;2023-06-22T04:57:04;23.80;47.30
17296;DHT22;8766;51.480;6.872;2023-06-22T04:59:35;23.70;47.50
17296;DHT22;8766;51.480;6.872;2023-06-22T05:02:05;23.70;47.60
17296;DHT22;8766;51.480;6.872;2023-06-22T05:04:32;23.60;47.60
17296;DHT22;8766;51.480;6.872;2023-06-22T05:07:01;23.60;47.70
17296;DHT22;8766;51.480;6.872;2023-06-22T05:09:28;23.60;47.80
17296;DHT22;8766;51.480;6.872;2023-06-22T05:11:55;23.60;47.80
17296;DHT22;8766;51.480;6.872;2023-06-22T05:14:24;23.60;47.80
17296;DHT22;8766;51.480;6.872;2023-06-22T05:16:50;23.60;47.80
17296;DHT22;8766;51.480;6.872;2023-06-22T05:19:18;23.60;47.70
17296;DHT22;8766;51.480;6.872;2023-06-22T05:21:45;23.60;47.70
17296;DHT22;8766;51.480;6.872;2023-06-22T05:24:11;23.60;47.70
17296;DHT22;8766;51.480;6.872;2023-06-22T05:26:38;23.60;47.80
17296;DHT22;8766;51.480;6.872;2023-06-22T05:29:05;23.70;47.80
17296;DHT22;8766;51.480;6.872;2023-06-22T05:31:33;23.60;47.80
17296;DHT22;8766;51.480;6.872;2023-06-22T05:34:00;23.60;47.80
17296;DHT22;8766;51.480;6.872;2023-06-22T05:36:27;23.60;47.80
17296;DHT22;8766;51.480;6.872;2023-06-22T05:38:55;23.60;47.80
17296;DHT22;8766;51.480;6.872;2023-06-22T05:41:22;23.60;47.80
17296;DHT22;8766;51.480;6.872;2023-06-22T05:43:49;23.60;47.80
17296;DHT22;8766;51.480;6.872;2023-06-22T05:46:16;23.60;47.90
17296;DHT22;8766;51.480;6.872;2023-06-22T05:48:44;23.60;47.90
17296;DHT22;8766;51.480;6.872;2023-06-22T05:51:11;23.60;47.90
17296;DHT22;8766;51.480;6.872;2023-06-22T05:53:38;23.60;47.90
17296;DHT22;8766;51.480;6.872;2023-06-22T05:56:04;23.60;47.90
17296;DHT22;8766;51.480;6.872;2023-06-22T05:58:31;23.60;47.90
17296;DHT22;8766;51.480;6.872;2023-06-22T06:00:58;23.60;47.90
17296;DHT22;8766;51.480;6.872;2023-06-22T06:03:26;23.60;47.90
17296;DHT22;8766;51.480;6.872;2023-06-22T06:05:55;23.70;47.90
17296;DHT22;8766;51.480;6.872;2023-06-22T06:08:22;23.60;47.80
17296;DHT22;8766;51.480;6.872;2023-06-22T06:10:49;23.60;47.90
17296;DHT22;8766;51.480;6.872;2023-06-22T06:13:18;23.60;48.00
17296;DHT22;8766;51.480;6.872;2023-06-22T06:15:45;23.60;48.00
17296;DHT22;8766;51.480;6.872;2023-06-22T06:18:11;23.60;48.10
17296;DHT22;8766;51.480;6.872;2023-06-22T06:20:38;23.50;48.10
17296;DHT22;8766;51.480;6.872;2023-06-22T06:23:07;23.40;48.00
17296;DHT22;8766;51.480;6.872;2023-06-22T06:25:33;23.60;48.10
17296;DHT22;8766;51.480;6.872;2023-06-22T06:28:00;23.60;48.10
17296;DHT22;8766;51.480;6.872;2023-06-22T06:30:27;23.70;48.10
17296;DHT22;8766;51.480;6.872;2023-06-22T06:32:54;23.60;48.00
17296;DHT22;8766;51.480;6.872;2023-06-22T06:35:21;23.60;48.00
17296;DHT22;8766;51.480;6.872;2023-06-22T06:37:50;23.60;48.00
17296;DHT22;8766;51.480;6.872;2023-06-22T06:40:18;23.60;48.00
17296;DHT22;8766;51.480;6.872;2023-06-22T06:42:46;23.60;48.00
17296;DHT22;8766;51.480;6.872;2023-06-22T06:45:16;23.60;48.10
17296;DHT22;8766;51.480;6.872;2023-06-22T06:47:43;23.60;48.10
17296;DHT22;8766;51.480;6.872;2023-06-22T06:50:11;23.60;48.10
17296;DHT22;8766;51.480;6.872;2023-06-22T06:52:38;23.60;48.10
17296;DHT22;8766;51.480;6.872;2023-06-22T06:55:05;23.60;48.10
17296;DHT22;8766;51.480;6.872;2023-06-22T06:57:36;23.60;48.10
17296;DHT22;8766;51.480;6.872;2023-06-22T07:00:04;23.70;48.10
17296;DHT22;8766;51.480;6.872;2023-06-22T07:02:38;23.70;48.00
17296;DHT22;8766;51.480;6.872;2023-06-22T07:05:06;23.80;48.00
17296;DHT22;8766;51.480;6.872;2023-06-22T07:07:33;23.80;48.00
17296;DHT22;8766;51.480;6.872;2023-06-22T07:10:00;23.80;47.90
17296;DHT22;8766;51.480;6.872;2023-06-22T07:12:29;23.90;47.90
17296;DHT22;8766;51.480;6.872;2023-06-22T07:15:02;23.90;47.90
17296;DHT22;8766;51.480;6.872;2023-06-22T07:17:30;23.80;47.90
17296;DHT22;8766;51.480;6.872;2023-06-22T07:19:56;23.80;48.00
17296;DHT22;8766;51.480;6.872;2023-06-22T07:22:23;23.70;48.00
17296;DHT22;8766;51.480;6.872;2023-06-22T07:24:50;23.70;48.10
17296;DHT22;8766;51.480;6.872;2023-06-22T07:27:17;23.70;48.20
17296;DHT22;8766;51.480;6.872;2023-06-22T07:29:45;23.70;48.20
17296;DHT22;8766;51.480;6.872;2023-06-22T07:32:13;23.70;48.20
17296;DHT22;8766;51.480;6.872;2023-06-22T07:34:40;23.80;48.30
17296;DHT22;8766;51.480;6.872;2023-06-22T07:37:07;23.70;48.20
17296;DHT22;8766;51.480;6.872;2023-06-22T07:39:33;23.80;48.20
17296;DHT22;8766;51.480;6.872;2023-06-22T07:42:00;23.90;48.30
17296;DHT22;8766;51.480;6.872;2023-06-22T07:44:27;23.90;48.20
17296;DHT22;8766;51.480;6.872;2023-06-22T07:46:54;23.90;48.10
17296;DHT22;8766;51.480;6.872;2023-06-22T07:49:22;23.90;48.10
17296;DHT22;8766;51.480;6.872;2023-06-22T07:51:48;23.90;48.00
17296;DHT22;8766;51.480;6.872;2023-06-22T07:54:15;23.90;48.00
17296;DHT22;8766;51.480;6.872;2023-06-22T07:56:42;24.00;48.10
17296;DHT22;8766;51.480;6.872;2023-06-22T07:59:09;24.00;48.10
17296;DHT22;8766;51.480;6.872;2023-06-22T08:01:36;24.00;48.00
17296;DHT22;8766;51.480;6.872;2023-06-22T08:04:03;24.00;48.00
17296;DHT22;8766;51.480;6.872;2023-06-22T08:06:32;24.10;48.00
17296;DHT22;8766;51.480;6.872;2023-06-22T08:08:59;24.00;48.10
17296;DHT22;8766;51.480;6.872;2023-06-22T08:11:26;24.00;48.10
17296;DHT22;8766;51.480;6.872;2023-06-22T08:13:53;24.10;48.00
17296;DHT22;8766;51.480;6.872;2023-06-22T08:16:21;24.10;47.90
17296;DHT22;8766;51.480;6.872;2023-06-22T08:18:48;24.20;47.90
17296;DHT22;8766;51.480;6.872;2023-06-22T08:21:15;24.20;47.80
17296;DHT22;8766;51.480;6.872;2023-06-22T08:23:43;24.30;47.80
17296;DHT22;8766;51.480;6.872;2023-06-22T08:26:10;24.30;47.80
17296;DHT22;8766;51.480;6.872;2023-06-22T08:28:37;24.30;47.80
17296;DHT22;8766;51.480;6.872;2023-06-22T08:31:04;24.30;47.70
17296;DHT22;8766;51.480;6.872;2023-06-22T08:33:30;24.40;47.70
17296;DHT22;8766;51.480;6.872;2023-06-22T08:35:58;24.50;47.60
17296;DHT22;8766;51.480;6.872;2023-06-22T08:38:25;24.60;47.50
17296;DHT22;8766;51.480;6.872;2023-06-22T08:40:53;24.60;47.40
17296;DHT22;8766;51.480;6.872;2023-06-22T08:43:20;24.60;47.30
17296;DHT22;8766;51.480;6.872;2023-06-22T08:45:46;24.60;47.40
17296;DHT22;8766;51.480;6.872;2023-06-22T08:48:13;24.60;47.50
17296;DHT22;8766;51.480;6.872;2023-06-22T08:50:40;24.50;47.60
17296;DHT22;8766;51.480;6.872;2023-06-22T08:53:07;24.50;47.70
17296;DHT22;8766;51.480;6.872;2023-06-22T08:55:34;24.50;47.80
17296;DHT22;8766;51.480;6.872;2023-06-22T08:58:02;24.40;47.80
17296;DHT22;8766;51.480;6.872;2023-06-22T09:00:30;24.40;47.90
17296;DHT22;8766;51.480;6.872;2023-06-22T09:03:00;24.40;47.90
17296;DHT22;8766;51.480;6.872;2023-06-22T09:05:27;24.40;47.90
17296;DHT22;8766;51.480;6.872;2023-06-22T09:07:53;24.40;48.00
17296;DHT22;8766;51.480;6.872;2023-06-22T09:10:21;24.40;48.00
17296;DHT22;8766;51.480;6.872;2023-06-22T09:12:48;24.40;48.00
17296;DHT22;8766;51.480;6.872;2023-06-22T09:15:16;24.50;47.90
17296;DHT22;8766;51.480;6.872;2023-06-22T09:17:43;24.60;47.80
17296;DHT22;8766;51.480;6.872;2023-06-22T09:20:11;24.60;47.70
17296;DHT22;8766;51.480;6.872;2023-06-22T09:22:38;24.70;47.60
17296;DHT22;8766;51.480;6.872;2023-06-22T09:25:06;24.70;47.70
17296;DHT22;8766;51.480;6.872;2023-06-22T09:27:33;24.70;47.60
17296;DHT22;8766;51.480;6.872;2023-06-22T09:29:59;24.80;47.60
17296;DHT22;8766;51.480;6.872;2023-06-22T09:32:28;24.80;47.60
17296;DHT22;8766;51.480;6.872;2023-06-22T09:34:54;24.90;47.50
17296;DHT22;8766;51.480;6.872;2023-06-22T09:37:21;24.90;47.50
17296;DHT22;8766;51.480;6.872;2023-06-22T09:39:48;24.90;47.40
17296;DHT22;8766;51.480;6.872;2023-06-22T09:42:14;25.10;47.30
17296;DHT22;8766;51.480;6.872;2023-06-22T09:44:41;25.20;47.10
17296;DHT22;8766;51.480;6.872;2023-06-22T09:47:08;25.40;46.90
17296;DHT22;8766;51.480;6.872;2023-06-22T09:49:36;25.50;46.80
17296;DHT22;8766;51.480;6.872;2023-06-22T09:52:03;25.50;46.80
17296;DHT22;8766;51.480;6.872;2023-06-22T09:54:30;25.50;46.80
17296;DHT22;8766;51.480;6.872;2023-06-22T09:56:57;25.50;46.70
17296;DHT22;8766;51.480;6.872;2023-06-22T09:59:24;25.60;46.60
17296;DHT22;8766;51.480;6.872;2023-06-22T10:01:50;25.70;46.40
17296;DHT22;8766;51.480;6.872;2023-06-22T10:04:17;25.90;46.20
17296;DHT22;8766;51.480;6.872;2023-06-22T10:06:45;26.10;45.90
17296;DHT22;8766;51.480;6.872;2023-06-22T10:09:12;26.40;45.60
17296;DHT22;8766;51.480;6.872;2023-06-22T10:11:39;26.70;45.10
17296;DHT22;8766;51.480;6.872;2023-06-22T10:14:05;27.00;44.80
17296;DHT22;8766;51.480;6.872;2023-06-22T10:16:32;27.30;44.50
17296;DHT22;8766;51.480;6.872;2023-06-22T10:19:01;27.50;44.30
17296;DHT22;8766;51.480;6.872;2023-06-22T10:21:27;27.60;44.00
17296;DHT22;8766;51.480;6.872;2023-06-22T10:23:56;27.80;43.90
17296;DHT22;8766;51.480;6.872;2023-06-22T10:26:22;27.90;43.60
17296;DHT22;8766;51.480;6.872;2023-06-22T10:28:49;28.10;43.60
17296;DHT22;8766;51.480;6.872;2023-06-22T10:31:16;28.10;43.60
17296;DHT22;8766;51.480;6.872;2023-06-22T10:33:43;28.30;43.50
17296;DHT22;8766;51.480;6.872;2023-06-22T10:36:10;28.40;43.40
17296;DHT22;8766;51.480;6.872;2023-06-22T10:38:37;28.40;43.50
17296;DHT22;8766;51.480;6.872;2023-06-22T10:41:05;28.40;43.50
17296;DHT22;8766;51.480;6.872;2023-06-22T10:43:32;28.30;43.60
17296;DHT22;8766;51.480;6.872;2023-06-22T10:45:59;28.20;43.80
17296;DHT22;8766;51.480;6.872;2023-06-22T10:48:25;28.00;44.00
17296;DHT22;8766;51.480;6.872;2023-06-22T10:50:52;27.90;44.80
17296;DHT22;8766;51.480;6.872;2023-06-22T10:53:20;27.80;44.50
17296;DHT22;8766;51.480;6.872;2023-06-22T10:55:46;27.70;44.70
17296;DHT22;8766;51.480;6.872;2023-06-22T10:58:14;27.50;44.90
17296;DHT22;8766;51.480;6.872;2023-06-22T11:00:41;27.40;45.10
17296;DHT22;8766;51.480;6.872;2023-06-22T11:03:08;27.30;45.30
17296;DHT22;8766;51.480;6.872;2023-06-22T11:05:35;27.20;45.70
17296;DHT22;8766;51.480;6.872;2023-06-22T11:08:01;26.90;45.90
17296;DHT22;8766;51.480;6.872;2023-06-22T11:10:28;26.70;46.20
17296;DHT22;8766;51.480;6.872;2023-06-22T11:12:55;26.60;46.50
17296;DHT22;8766;51.480;6.872;2023-06-22T11:15:24;26.50;46.60
17296;DHT22;8766;51.480;6.872;2023-06-22T11:17:51;26.50;46.80
17296;DHT22;8766;51.480;6.872;2023-06-22T11:20:18;26.40;46.80
17296;DHT22;8766;51.480;6.872;2023-06-22T11:22:45;26.30;46.90
17296;DHT22;8766;51.480;6.872;2023-06-22T11:25:11;26.30;47.00
17296;DHT22;8766;51.480;6.872;2023-06-22T11:27:38;26.20;47.10
17296;DHT22;8766;51.480;6.872;2023-06-22T11:30:07;26.10;47.20
17296;DHT22;8766;51.480;6.872;2023-06-22T11:32:35;26.10;47.20
17296;DHT22;8766;51.480;6.872;2023-06-22T11:35:02;26.10;47.30
17296;DHT22;8766;51.480;6.872;2023-06-22T11:37:29;26.00;47.40
17296;DHT22;8766;51.480;6.872;2023-06-22T11:39:55;25.90;47.50
17296;DHT22;8766;51.480;6.872;2023-06-22T11:42:24;25.90;47.70
17296;DHT22;8766;51.480;6.872;2023-06-22T11:44:50;25.80;47.80
17296;DHT22;8766;51.480;6.872;2023-06-22T11:47:17;25.70;47.80
17296;DHT22;8766;51.480;6.872;2023-06-22T11:49:45;25.70;48.00
17296;DHT22;8766;51.480;6.872;2023-06-22T11:52:12;25.60;48.00
17296;DHT22;8766;51.480;6.872;2023-06-22T11:54:39;25.60;48.10
17296;DHT22;8766;51.480;6.872;2023-06-22T11:57:05;25.50;48.10
17296;DHT22;8766;51.480;6.872;2023-06-22T11:59:32;25.50;48.20
17296;DHT22;8766;51.480;6.872;2023-06-22T12:01:59;25.50;48.30
17296;DHT22;8766;51.480;6.872;2023-06-22T12:04:26;25.50;48.40
17296;DHT22;8766;51.480;6.872;2023-06-22T12:06:54;25.40;48.40
17296;DHT22;8766;51.480;6.872;2023-06-22T12:09:21;25.40;48.50
17296;DHT22;8766;51.480;6.872;2023-06-22T12:11:48;25.30;48.50
17296;DHT22;8766;51.480;6.872;2023-06-22T12:14:14;25.30;48.60
17296;DHT22;8766;51.480;6.872;2023-06-22T12:16:41;25.20;48.70
17296;DHT22;8766;51.480;6.872;2023-06-22T12:19:09;25.20;48.70
17296;DHT22;8766;51.480;6.872;2023-06-22T12:21:37;25.20;48.80
17296;DHT22;8766;51.480;6.872;2023-06-22T12:24:06;25.20;48.90
17296;DHT22;8766;51.480;6.872;2023-06-22T12:26:33;25.10;48.90
17296;DHT22;8766;51.480;6.872;2023-06-22T12:28:59;25.10;48.90
17296;DHT22;8766;51.480;6.872;2023-06-22T12:31:26;25.10;48.90
17296;DHT22;8766;51.480;6.872;2023-06-22T12:33:53;25.10;48.90
17296;DHT22;8766;51.480;6.872;2023-06-22T12:36:20;25.20;49.00
17296;DHT22;8766;51.480;6.872;2023-06-22T12:38:46;25.20;48.80
17296;DHT22;8766;51.480;6.872;2023-06-22T12:41:14;25.40;48.60
17296;DHT22;8766;51.480;6.872;2023-06-22T12:43:41;25.50;48.40
17296;DHT22;8766;51.480;6.872;2023-06-22T12:46:08;25.60;48.30
17296;DHT22;8766;51.480;6.872;2023-06-22T12:48:35;25.70;48.30
17296;DHT22;8766;51.480;6.872;2023-06-22T12:51:07;25.70;48.20
17296;DHT22;8766;51.480;6.872;2023-06-22T12:53:33;25.70;48.20
17296;DHT22;8766;51.480;6.872;2023-06-22T12:56:00;25.70;48.10
17296;DHT22;8766;51.480;6.872;2023-06-22T12:58:28;25.70;48.20
17296;DHT22;8766;51.480;6.872;2023-06-22T13:00:55;25.70;48.30
17296;DHT22;8766;51.480;6.872;2023-06-22T13:03:22;25.70;48.40
17296;DHT22;8766;51.480;6.872;2023-06-22T13:05:50;25.60;48.60
17296;DHT22;8766;51.480;6.872;2023-06-22T13:08:17;25.50;48.70
17296;DHT22;8766;51.480;6.872;2023-06-22T13:10:44;25.50;48.90
17296;DHT22;8766;51.480;6.872;2023-06-22T13:13:10;25.40;49.00
17296;DHT22;8766;51.480;6.872;2023-06-22T13:15:38;25.30;49.00
17296;DHT22;8766;51.480;6.872;2023-06-22T13:18:05;25.40;49.10
17296;DHT22;8766;51.480;6.872;2023-06-22T13:20:32;25.30;49.10
17296;DHT22;8766;51.480;6.872;2023-06-22T13:22:59;25.30;49.10
17296;DHT22;8766;51.480;6.872;2023-06-22T13:25:25;25.40;49.10
17296;DHT22;8766;51.480;6.872;2023-06-22T13:27:52;25.40;49.20
17296;DHT22;8766;51.480;6.872;2023-06-22T13:30:19;25.40;49.40
17296;DHT22;8766;51.480;6.872;2023-06-22T13:32:47;25.20;49.50
17296;DHT22;8766;51.480;6.872;2023-06-22T13:35:14;25.20;49.50
17296;DHT22;8766;51.480;6.872;2023-06-22T13:37:41;25.20;49.50
17296;DHT22;8766;51.480;6.872;2023-06-22T13:40:08;25.20;49.50
17296;DHT22;8766;51.480;6.872;2023-06-22T13:42:35;25.20;49.50
17296;DHT22;8766;51.480;6.872;2023-06-22T13:45:03;25.20;49.50
17296;DHT22;8766;51.480;6.872;2023-06-22T13:47:30;25.30;49.50
17296;DHT22;8766;51.480;6.872;2023-06-22T13:49:58;25.40;49.50
17296;DHT22;8766;51.480;6.872;2023-06-22T13:52:25;25.40;49.40
17296;DHT22;8766;51.480;6.872;2023-06-22T13:54:52;25.50;49.30
17296;DHT22;8766;51.480;6.872;2023-06-22T13:57:19;25.70;49.20
17296;DHT22;8766;51.480;6.872;2023-06-22T13:59:45;25.70;49.00
17296;DHT22;8766;51.480;6.872;2023-06-22T14:02:12;25.60;48.80
17296;DHT22;8766;51.480;6.872;2023-06-22T14:04:39;25.70;48.80
17296;DHT22;8766;51.480;6.872;2023-06-22T14:07:07;25.90;48.80
17296;DHT22;8766;51.480;6.872;2023-06-22T14:09:34;25.90;48.70
17296;DHT22;8766;51.480;6.872;2023-06-22T14:12:03;26.00;48.70
17296;DHT22;8766;51.480;6.872;2023-06-22T14:14:30;26.00;48.70
17296;DHT22;8766;51.480;6.872;2023-06-22T14:16:56;26.00;48.70
17296;DHT22;8766;51.480;6.872;2023-06-22T14:19:23;25.90;48.80
17296;DHT22;8766;51.480;6.872;2023-06-22T14:21:50;25.80;49.60
17296;DHT22;8766;51.480;6.872;2023-06-22T14:24:18;25.70;49.30
17296;DHT22;8766;51.480;6.872;2023-06-22T14:26:45;25.70;49.50
17296;DHT22;8766;51.480;6.872;2023-06-22T14:29:11;25.50;50.20
17296;DHT22;8766;51.480;6.872;2023-06-22T14:31:38;25.50;49.80
17296;DHT22;8766;51.480;6.872;2023-06-22T14:34:05;25.40;49.80
17296;DHT22;8766;51.480;6.872;2023-06-22T14:36:32;25.50;49.90
17296;DHT22;8766;51.480;6.872;2023-06-22T14:38:58;25.50;49.80
17296;DHT22;8766;51.480;6.872;2023-06-22T14:41:26;25.60;49.80
17296;DHT22;8766;51.480;6.872;2023-06-22T14:43:53;25.50;49.80
17296;DHT22;8766;51.480;6.872;2023-06-22T14:46:20;25.50;49.90
17296;DHT22;8766;51.480;6.872;2023-06-22T14:48:47;25.50;50.10
17296;DHT22;8766;51.480;6.872;2023-06-22T14:51:14;25.40;50.10
17296;DHT22;8766;51.480;6.872;2023-06-22T14:53:42;25.40;50.20
17296;DHT22;8766;51.480;6.872;2023-06-22T14:56:08;25.40;50.30
17296;DHT22;8766;51.480;6.872;2023-06-22T14:58:36;25.40;50.20
17296;DHT22;8766;51.480;6.872;2023-06-22T15:01:03;25.40;50.30
17296;DHT22;8766;51.480;6.872;2023-06-22T15:03:31;25.40;50.20
17296;DHT22;8766;51.480;6.872;2023-06-22T15:05:58;25.40;50.30
17296;DHT22;8766;51.480;6.872;2023-06-22T15:08:25;25.40;50.30
17296;DHT22;8766;51.480;6.872;2023-06-22T15:10:52;25.40;50.40
17296;DHT22;8766;51.480;6.872;2023-06-22T15:13:18;25.40;50.30
17296;DHT22;8766;51.480;6.872;2023-06-22T15:15:47;25.50;50.30
17296;DHT22;8766;51.480;6.872;2023-06-22T15:18:14;25.60;50.30
17296;DHT22;8766;51.480;6.872;2023-06-22T15:20:41;25.60;50.20
17296;DHT22;8766;51.480;6.872;2023-06-22T15:23:10;25.60;50.20
17296;DHT22;8766;51.480;6.872;2023-06-22T15:25:37;25.60;50.30
17296;DHT22;8766;51.480;6.872;2023-06-22T15:28:03;25.60;50.40
17296;DHT22;8766;51.480;6.872;2023-06-22T15:30:30;25.50;50.40
17296;DHT22;8766;51.480;6.872;2023-06-22T15:32:59;25.50;50.50
17296;DHT22;8766;51.480;6.872;2023-06-22T15:35:26;25.50;50.50
17296;DHT22;8766;51.480;6.872;2023-06-22T15:37:53;25.50;50.60
17296;DHT22;8766;51.480;6.872;2023-06-22T15:40:20;25.40;50.60
17296;DHT22;8766;51.480;6.872;2023-06-22T15:42:49;25.40;50.70
17296;DHT22;8766;51.480;6.872;2023-06-22T15:45:16;25.40;50.80